Time;durP1;ratioP1;P1;durP2;ratioP2;P2;SDS_P1;SDS_P2;PMS_P1;PMS_P2;Temp;Humidity;BMP_temperature;BMP_pressure;BME280_temperature;BME280_humidity;BME280_pressure;Samples;Min_cycle;Max_cycle;Signal;HPM_P1;HPM_P2
2022/12/25 00:01:51;;;;;;;;;13.75;13.25;;;;;13.33;80.82;101002.69;5104267;27;47538;-59
2022/12/25 00:04:16;;;;;;;;;13.75;12.25;;;;;13.25;80.52;100992.25;5122537;27;45244;-59
2022/12/25 00:06:42;;;;;;;;;14.50;10.50;;;;;13.28;80.87;100994.81;5122585;27;46015;-59
2022/12/25 00:09:07;;;;;;;;;14.50;13.25;;;;;13.34;81.11;101002.63;5122485;27;45508;-59
2022/12/25 00:11:32;;;;;;;;;10.25;10.25;;;;;13.34;81.19;101002.63;5122576;27;46191;-59
2022/12/25 00:13:58;;;;;;;;;13.25;11.25;;;;;13.30;80.85;100984.03;5122385;27;45247;-59
2022/12/25 00:16:25;;;;;;;;;16.25;14.75;;;;;13.40;80.67;100996.16;5104149;27;45489;-59
2022/12/25 00:18:51;;;;;;;;;11.50;10.75;;;;;13.37;80.81;100992.75;5122454;27;45436;-59
2022/12/25 00:21:19;;;;;;;;;10.00;10.00;;;;;13.33;80.71;100978.56;5122256;27;45357;-59
2022/12/25 00:23:44;;;;;;;;;12.50;10.75;;;;;13.42;80.76;100990.75;5122223;27;45657;-59
2022/12/25 00:26:13;;;;;;;;;13.75;11.50;;;;;13.43;80.72;101000.53;5122524;27;45639;-59
2022/12/25 00:28:38;;;;;;;;;8.50;8.50;;;;;13.41;80.69;100984.50;5121566;27;45289;-59
2022/12/25 00:31:10;;;;;;;;;10.00;8.00;;;;;13.46;80.94;100982.50;5101020;27;47398;-59
2022/12/25 00:33:40;;;;;;;;;7.00;7.00;;;;;13.44;80.77;100978.16;5082998;27;45697;-59
2022/12/25 00:36:06;;;;;;;;;13.25;11.25;;;;;13.45;80.85;100972.72;5083142;27;45929;-59
2022/12/25 00:38:33;;;;;;;;;11.00;11.00;;;;;13.48;80.78;100993.16;5101353;27;45471;-59
2022/12/25 00:41:02;;;;;;;;;11.00;11.00;;;;;13.45;80.68;100996.84;5083092;27;47282;-59
2022/12/25 00:43:28;;;;;;;;;12.50;12.50;;;;;13.48;80.82;100998.53;5101468;27;45409;-59
2022/12/25 00:45:58;;;;;;;;;15.00;12.50;;;;;13.46;80.67;100987.00;5083123;27;45483;-59
2022/12/25 00:48:25;;;;;;;;;14.50;13.75;;;;;13.53;80.74;100993.84;5101457;27;45312;-59
2022/12/25 00:50:59;;;;;;;;;14.25;10.75;;;;;13.53;80.50;100981.34;5101068;27;46330;-59
2022/12/25 00:53:26;;;;;;;;;15.25;12.75;;;;;13.45;80.83;100962.00;5101027;27;45565;-59
2022/12/25 00:55:54;;;;;;;;;10.75;10.50;;;;;13.49;80.81;100968.09;5101354;27;45313;-59
2022/12/25 00:58:19;;;;;;;;;13.00;11.25;;;;;13.54;80.70;100974.16;5100883;27;45463;-59
2022/12/25 01:00:46;;;;;;;;;12.75;10.75;;;;;13.52;80.71;100965.31;5101104;27;46099;-59
2022/12/25 01:03:11;;;;;;;;;16.25;15.00;;;;;13.48;80.61;100959.19;5100824;27;45634;-59
2022/12/25 01:05:36;;;;;;;;;13.25;12.00;;;;;13.48;80.90;100961.88;5100981;27;45366;-60
2022/12/25 01:08:02;;;;;;;;;11.50;10.00;;;;;13.43;80.98;100947.78;5082507;27;45324;-59
2022/12/25 01:10:27;;;;;;;;;10.00;9.50;;;;;13.49;80.83;100960.06;5100877;27;45421;-59
2022/12/25 01:12:53;;;;;;;;;16.50;13.25;;;;;13.53;80.56;100964.34;5100803;27;45409;-59
2022/12/25 01:15:18;;;;;;;;;11.00;11.00;;;;;13.55;80.81;100972.31;5101146;27;45315;-59
2022/12/25 01:17:44;;;;;;;;;15.75;14.00;;;;;13.56;80.52;100969.59;5100796;27;45559;-59
2022/12/25 01:20:12;;;;;;;;;15.50;13.25;;;;;13.57;80.81;100957.06;5100500;27;46334;-59
2022/12/25 01:22:37;;;;;;;;;16.00;14.00;;;;;13.59;80.87;100965.91;5082016;27;45537;-59
2022/12/25 01:25:05;;;;;;;;;9.50;9.50;;;;;13.59;80.88;100961.41;5100993;27;45247;-59
2022/12/25 01:27:31;;;;;;;;;12.75;10.00;;;;;13.51;80.69;100944.78;5082324;27;45933;-60
2022/12/25 01:29:56;;;;;;;;;14.25;13.25;;;;;13.51;80.54;100959.06;5100587;27;46304;-59
2022/12/25 01:32:22;;;;;;;;;14.75;13.25;;;;;13.52;80.90;100957.25;5106585;27;45441;-59
2022/12/25 01:34:47;;;;;;;;;16.75;13.25;;;;;13.59;80.52;100972.16;5121282;27;45445;-59
2022/12/25 01:37:12;;;;;;;;;14.50;13.75;;;;;13.57;80.84;100962.44;5121226;27;45368;-59
2022/12/25 01:39:38;;;;;;;;;13.50;11.00;;;;;13.61;80.57;100977.44;5120721;27;45724;-59
2022/12/25 01:42:03;;;;;;;;;9.25;9.25;;;;;13.62;80.55;100977.41;5120230;27;45440;-59
2022/12/25 01:44:34;;;;;;;;;14.75;11.50;;;;;13.67;80.50;100988.81;5121129;27;45360;-59
2022/12/25 01:47:00;;;;;;;;;10.00;9.00;;;;;13.67;80.40;100987.94;5120993;27;45365;-59
2022/12/25 01:49:26;;;;;;;;;12.50;12.00;;;;;13.67;80.30;100983.44;5102517;27;45418;-59
2022/12/25 01:52:01;;;;;;;;;12.75;10.00;;;;;13.68;80.29;100977.16;5120624;27;45385;-59
2022/12/25 01:54:35;;;;;;;;;14.00;13.75;;;;;13.67;80.38;100980.75;5102396;27;45444;-59
2022/12/25 01:57:05;;;;;;;;;13.25;10.25;;;;;13.65;80.32;100974.59;5104072;27;45400;-59
2022/12/25 01:59:31;;;;;;;;;9.25;8.00;;;;;13.70;80.30;100969.03;5111639;27;45572;-59
2022/12/25 02:01:58;;;;;;;;;5.75;5.75;;;;;13.70;79.95;100969.91;5120941;27;45292;-59
2022/12/25 02:04:40;;;;;;;;;10.75;10.75;;;;;13.61;80.43;100951.50;5120799;27;45541;-59
2022/12/25 02:07:09;;;;;;;;;8.75;8.00;;;;;13.62;80.40;100937.16;5120712;27;45418;-59
2022/12/25 02:09:36;;;;;;;;;8.75;8.75;;;;;13.65;80.76;100955.81;5120526;27;46209;-59
2022/12/25 02:12:01;;;;;;;;;11.50;8.75;;;;;13.56;80.25;100950.81;5120658;27;45435;-59
2022/12/25 02:14:31;;;;;;;;;11.00;9.75;;;;;13.59;80.66;100960.56;5120784;27;45448;-59
2022/12/25 02:17:17;;;;;;;;;13.25;11.25;;;;;13.63;80.76;100967.53;5102097;27;45578;-59
2022/12/25 02:20:01;;;;;;;;;7.75;7.75;;;;;13.61;80.71;100967.59;5120710;27;46021;-59
2022/12/25 02:22:39;;;;;;;;;11.50;11.25;;;;;13.58;80.60;100937.34;5120355;27;45256;-59
2022/12/25 02:25:38;;;;;;;;;10.00;10.00;;;;;13.64;80.85;100948.69;5120550;27;45350;-59
2022/12/25 02:28:20;;;;;;;;;13.50;9.75;;;;;13.56;80.89;100934.72;5120646;27;45266;-59
2022/12/25 02:30:55;;;;;;;;;9.50;8.25;;;;;13.65;80.67;100957.63;5101651;27;46525;-59
2022/12/25 02:36:31;;;;;;;;;5.75;5.75;;;;;13.62;80.65;100941.66;5099774;27;45383;-59
2022/12/25 02:41:54;;;;;;;;;8.50;8.00;;;;;13.65;80.82;100931.66;5058604;27;45464;-59
2022/12/25 03:06:41;;;;;;;;;6.25;6.25;;;;;13.64;80.93;100927.22;5099847;27;45540;-59
2022/12/25 03:07:17;;;;;;;;;9.00;9.00;;;;;13.60;80.94;100922.94;5102828;27;45458;-59
2022/12/25 03:12:41;;;;;;;;;7.75;6.75;;;;;13.59;81.24;100894.38;5103019;27;45295;-59
2022/12/25 03:17:56;;;;;;;;;11.75;10.00;;;;;13.69;80.89;100908.25;5102837;27;45411;-59
2022/12/25 03:28:34;;;;;;;;;15.00;14.25;;;;;13.57;81.32;100896.25;5102741;27;45303;-59
2022/12/25 03:31:12;;;;;;;;;16.00;15.75;;;;;13.59;81.31;100888.13;5083914;27;45581;-59
2022/12/25 03:41:20;;;;;;;;;22.00;18.75;;;;;13.58;81.45;100875.66;5102426;27;45385;-59
2022/12/25 04:36:28;;;;;;;;;24.75;16.75;;;;;13.46;81.64;100815.38;5122119;27;45341;-59
2022/12/25 04:38:53;;;;;;;;;13.75;13.75;;;;;13.50;81.45;100801.78;5122131;27;45738;-59
2022/12/25 04:41:19;;;;;;;;;15.75;15.75;;;;;13.38;81.52;100786.22;5122116;27;45467;-59
2022/12/25 04:43:44;;;;;;;;;20.25;16.25;;;;;13.44;81.62;100807.41;5103415;27;45887;-59
2022/12/25 04:46:09;;;;;;;;;17.25;16.00;;;;;13.49;81.67;100820.63;5122069;27;45343;-59
2022/12/25 04:48:36;;;;;;;;;16.75;16.00;;;;;13.44;81.56;100823.47;5122038;27;45454;-59
2022/12/25 04:51:12;;;;;;;;;16.25;13.50;;;;;13.39;81.80;100808.53;5085685;27;45452;-59
2022/12/25 04:53:38;;;;;;;;;16.25;14.75;;;;;13.48;81.38;100829.59;5121871;27;45968;-59
2022/12/25 04:56:03;;;;;;;;;20.50;15.25;;;;;13.45;81.62;100835.97;5121189;27;45388;-59
2022/12/25 04:58:30;;;;;;;;;18.00;16.00;;;;;13.48;82.13;100834.94;5076728;27;45515;-59
2022/12/25 05:00:59;;;;;;;;;22.75;16.75;;;;;13.47;81.82;100828.72;5121823;27;45271;-59
2022/12/25 05:03:24;;;;;;;;;16.00;15.00;;;;;13.45;81.88;100819.00;5121802;27;45411;-59
2022/12/25 05:05:50;;;;;;;;;23.25;20.75;;;;;13.53;81.53;100822.22;5121471;27;45455;-59
2022/12/25 05:08:15;;;;;;;;;19.00;17.75;;;;;13.48;81.50;100781.31;5121898;27;45369;-59
2022/12/25 05:10:40;;;;;;;;;17.00;15.00;;;;;13.39;81.53;100736.16;5121578;27;45455;-59
2022/12/25 05:13:06;;;;;;;;;19.50;18.50;;;;;13.20;81.44;100695.81;5121640;27;45342;-59
2022/12/25 05:15:31;;;;;;;;;17.75;16.25;;;;;13.39;81.38;100734.34;5102722;27;45368;-59
2022/12/25 05:17:56;;;;;;;;;17.50;14.00;;;;;13.33;81.94;100740.84;5103222;27;45453;-59
2022/12/25 05:20:22;;;;;;;;;15.00;13.00;;;;;13.38;82.17;100755.84;5121178;27;45428;-59
2022/12/25 05:22:47;;;;;;;;;16.00;16.00;;;;;13.37;82.01;100772.88;5121454;27;45318;-59
2022/12/25 05:25:12;;;;;;;;;20.75;18.25;;;;;13.46;81.97;100788.56;5121234;27;45450;-59
2022/12/25 05:27:38;;;;;;;;;18.25;16.00;;;;;13.44;82.15;100772.53;5121726;27;45444;-59
2022/12/25 05:30:03;;;;;;;;;16.25;15.50;;;;;13.31;82.28;100755.22;5102925;27;45404;-59
2022/12/25 05:32:29;;;;;;;;;16.50;13.75;;;;;13.47;81.85;100780.44;5087947;27;48658;-59
2022/12/25 05:34:54;;;;;;;;;18.75;17.00;;;;;13.44;82.12;100759.13;5082193;27;45307;-59
2022/12/25 05:37:19;;;;;;;;;20.00;18.50;;;;;13.47;81.86;100761.69;5082344;27;45392;-59
2022/12/25 05:39:44;;;;;;;;;18.00;17.50;;;;;13.50;81.45;100764.22;5100517;27;45629;-59
2022/12/25 05:42:10;;;;;;;;;17.25;15.25;;;;;13.53;81.84;100782.88;5100562;27;45282;-59
2022/12/25 05:44:35;;;;;;;;;20.00;17.25;;;;;13.56;81.59;100795.25;5100397;27;45263;-59
2022/12/25 05:47:00;;;;;;;;;16.75;15.25;;;;;13.59;81.68;100797.81;5100670;27;45288;-59
2022/12/25 05:49:26;;;;;;;;;16.75;16.25;;;;;13.62;81.64;100802.19;5100581;27;45310;-59
2022/12/25 05:51:51;;;;;;;;;18.75;16.75;;;;;13.56;81.85;100781.84;5081496;27;45417;-59
2022/12/25 05:54:16;;;;;;;;;19.00;16.75;;;;;13.62;81.67;100791.47;5100213;27;45294;-59
2022/12/25 05:56:42;;;;;;;;;19.00;17.50;;;;;13.59;81.64;100787.09;5100411;27;45359;-59
2022/12/25 05:59:07;;;;;;;;;21.00;17.25;;;;;13.57;81.62;100780.06;5100139;27;45306;-59
2022/12/25 06:01:32;;;;;;;;;18.25;16.00;;;;;13.55;81.57;100771.19;5100077;27;45553;-59
2022/12/25 06:03:58;;;;;;;;;22.00;18.75;;;;;13.63;81.85;100790.50;5100210;27;45304;-59
2022/12/25 06:06:23;;;;;;;;;20.25;16.75;;;;;13.62;81.53;100778.03;5099865;27;45325;-59
2022/12/25 06:08:49;;;;;;;;;16.75;16.25;;;;;13.53;81.53;100766.78;5081725;27;45379;-59
2022/12/25 06:11:14;;;;;;;;;18.00;15.50;;;;;13.53;81.38;100752.47;5099919;27;45488;-59
2022/12/25 06:13:40;;;;;;;;;17.50;17.25;;;;;13.62;81.68;100759.28;5081642;27;46068;-59
2022/12/25 06:16:07;;;;;;;;;19.25;16.00;;;;;13.58;81.54;100757.66;5100098;27;45413;-59
2022/12/25 06:18:38;;;;;;;;;13.25;10.00;;;;;13.61;81.35;100761.06;5100309;27;45462;-59
2022/12/25 06:21:08;;;;;;;;;15.25;15.00;;;;;13.59;81.65;100746.00;5099553;27;45266;-59
2022/12/25 06:23:34;;;;;;;;;20.75;18.75;;;;;13.61;81.30;100754.84;5099941;27;45619;-59
2022/12/25 06:26:06;;;;;;;;;14.00;14.00;;;;;13.62;81.53;100740.50;5077802;28;45380;-59
2022/12/25 06:28:31;;;;;;;;;16.75;15.50;;;;;13.61;81.47;100739.59;5107330;27;45437;-59
2022/12/25 06:30:57;;;;;;;;;13.50;13.50;;;;;13.63;81.44;100734.16;5118773;27;46259;-59
2022/12/25 06:33:22;;;;;;;;;17.00;15.50;;;;;13.60;81.44;100718.22;5081285;27;45552;-59
2022/12/25 06:35:48;;;;;;;;;13.50;13.00;;;;;13.61;81.33;100718.16;5099849;27;45316;-59
2022/12/25 06:38:13;;;;;;;;;16.75;15.00;;;;;13.62;80.93;100719.03;5099656;27;45334;-59
2022/12/25 06:40:38;;;;;;;;;17.75;15.25;;;;;13.58;81.33;100715.63;5099561;27;45380;-59
2022/12/25 06:43:04;;;;;;;;;15.75;15.25;;;;;13.60;81.34;100727.16;5081321;27;45428;-59
2022/12/25 06:45:29;;;;;;;;;14.75;14.75;;;;;13.65;81.22;100726.94;5081203;27;45232;-59
2022/12/25 06:47:54;;;;;;;;;15.75;13.00;;;;;13.61;81.34;100720.81;5099625;27;45282;-59
2022/12/25 06:50:20;;;;;;;;;14.75;12.25;;;;;13.60;81.32;100715.53;5080802;27;47462;-59
2022/12/25 06:52:45;;;;;;;;;15.50;12.50;;;;;13.55;81.22;100722.91;5090228;27;45382;-59
2022/12/25 06:55:10;;;;;;;;;10.50;10.50;;;;;13.51;81.33;100722.19;5099625;27;45252;-59
2022/12/25 06:57:36;;;;;;;;;12.25;12.25;;;;;13.54;81.47;100727.41;5099639;27;45407;-59
2022/12/25 07:00:02;;;;;;;;;10.25;10.25;;;;;13.48;81.37;100711.59;5080962;27;47036;-59
2022/12/25 07:02:28;;;;;;;;;14.50;10.75;;;;;13.53;80.91;100731.91;5081129;27;45858;-59
2022/12/25 07:04:53;;;;;;;;;12.50;12.50;;;;;13.56;81.33;100744.31;5099320;27;45386;-60
2022/12/25 07:07:20;;;;;;;;;13.25;11.25;;;;;13.48;81.22;100735.72;5080434;27;45750;-59
2022/12/25 07:09:45;;;;;;;;;11.50;11.50;;;;;13.56;81.25;100751.50;5077263;28;47513;-59
2022/12/25 07:12:15;;;;;;;;;11.25;9.75;;;;;13.55;81.46;100750.63;5092027;27;45502;-59
2022/12/25 07:14:41;;;;;;;;;13.00;13.00;;;;;13.42;81.29;100719.94;5081057;27;45366;-59
2022/12/25 07:17:06;;;;;;;;;9.00;9.00;;;;;13.54;81.28;100738.16;5077599;27;45591;-60
2022/12/25 07:19:32;;;;;;;;;14.00;11.00;;;;;13.45;81.24;100717.13;5098997;27;45318;-59
2022/12/25 07:21:57;;;;;;;;;10.75;9.25;;;;;13.42;81.44;100712.75;5099196;27;45251;-59
2022/12/25 07:24:23;;;;;;;;;5.25;4.25;;;;;13.51;81.08;100711.47;5099251;27;45442;-59
2022/12/25 07:26:50;;;;;;;;;10.00;10.00;;;;;13.46;81.02;100695.56;5099018;27;45497;-59
2022/12/25 07:29:16;;;;;;;;;8.50;8.25;;;;;13.49;81.23;100692.75;5080807;27;47720;-59
2022/12/25 07:31:41;;;;;;;;;9.75;9.75;;;;;13.41;80.83;100660.06;5080509;27;46059;-59
2022/12/25 07:34:07;;;;;;;;;13.25;10.00;;;;;13.47;81.01;100664.28;5119407;27;45376;-59
2022/12/25 07:36:32;;;;;;;;;12.25;10.00;;;;;13.51;81.11;100663.19;5100847;27;45488;-59
2022/12/25 07:38:58;;;;;;;;;14.25;11.00;;;;;13.44;80.88;100648.34;5121917;27;45414;-59
2022/12/25 07:41:23;;;;;;;;;15.25;13.00;;;;;13.42;81.00;100652.91;5123251;27;45416;-59
2022/12/25 07:43:50;;;;;;;;;10.25;9.50;;;;;13.52;80.58;100657.75;5123083;27;45592;-59
2022/12/25 07:46:16;;;;;;;;;12.50;11.00;;;;;13.48;80.93;100647.22;5104610;27;45413;-59
2022/12/25 07:48:41;;;;;;;;;12.00;11.00;;;;;13.39;80.81;100627.09;5122968;27;45413;-59
2022/12/25 07:51:10;;;;;;;;;11.50;10.25;;;;;13.47;80.92;100656.25;5122852;27;45251;-59
2022/12/25 07:53:36;;;;;;;;;8.25;7.00;;;;;13.44;80.57;100667.09;5104514;27;45427;-59
2022/12/25 07:56:04;;;;;;;;;10.75;9.75;;;;;13.42;80.47;100687.75;5122724;27;45387;-59
2022/12/25 07:58:30;;;;;;;;;14.75;11.25;;;;;13.34;80.67;100675.53;5096098;27;45473;-60
2022/12/25 08:01:03;;;;;;;;;7.75;6.00;;;;;13.39;80.88;100690.56;5122687;27;45305;-59
2022/12/25 08:03:28;;;;;;;;;11.50;10.00;;;;;13.33;80.92;100689.03;5122977;27;45394;-59
2022/12/25 08:05:57;;;;;;;;;10.75;10.25;;;;;13.30;80.55;100695.38;5122442;27;45524;-59
2022/12/25 08:08:23;;;;;;;;;10.50;10.50;;;;;13.30;80.77;100692.69;5122583;27;46634;-59
2022/12/25 08:10:48;;;;;;;;;11.75;9.50;;;;;13.34;80.89;100698.81;5122723;27;45332;-59
2022/12/25 08:13:13;;;;;;;;;11.25;11.25;;;;;13.32;80.59;100695.34;5122761;27;45314;-59
2022/12/25 08:15:40;;;;;;;;;9.25;8.25;;;;;13.25;80.82;100699.22;5122740;27;45457;-59
2022/12/25 08:18:05;;;;;;;;;14.00;10.50;;;;;13.25;80.69;100702.75;5122531;27;45394;-59
2022/12/25 08:20:30;;;;;;;;;13.50;9.25;;;;;13.18;80.70;100693.25;5122267;27;45351;-59
2022/12/25 08:22:56;;;;;;;;;11.50;10.00;;;;;13.27;80.57;100700.88;5104088;27;46118;-59
2022/12/25 08:25:21;;;;;;;;;12.25;10.50;;;;;13.27;80.61;100702.69;5122185;27;45678;-59
2022/12/25 08:27:46;;;;;;;;;13.00;9.25;;;;;13.13;80.44;100676.47;5103906;27;46348;-59
2022/12/25 08:30:12;;;;;;;;;10.75;7.75;;;;;13.21;80.44;100685.03;5122311;27;45369;-59
2022/12/25 08:32:37;;;;;;;;;9.00;9.00;;;;;13.25;80.69;100686.66;5106468;27;45641;-59
2022/12/25 08:35:03;;;;;;;;;9.75;7.25;;;;;13.29;80.47;100690.94;5083011;27;45641;-60
2022/12/25 08:37:29;;;;;;;;;11.50;11.50;;;;;13.25;80.37;100685.81;5101600;27;46478;-59
2022/12/25 08:39:54;;;;;;;;;11.25;10.00;;;;;13.19;80.25;100681.56;5101404;27;45336;-59
2022/12/25 08:42:20;;;;;;;;;10.00;9.00;;;;;13.21;80.30;100677.00;5101847;27;45367;-59
2022/12/25 08:44:45;;;;;;;;;9.00;9.00;;;;;13.18;79.92;100674.47;5101331;27;45390;-59
2022/12/25 08:47:11;;;;;;;;;14.25;8.50;;;;;13.17;80.41;100670.06;5101593;27;45435;-59
2022/12/25 08:49:36;;;;;;;;;9.75;9.00;;;;;13.18;80.38;100682.53;5100574;27;45248;-59
2022/12/25 08:52:01;;;;;;;;;8.25;8.25;;;;;13.21;80.33;100676.13;5101691;27;45330;-59
2022/12/25 08:54:27;;;;;;;;;10.25;10.25;;;;;13.14;80.49;100649.59;5101126;27;45422;-59
2022/12/25 08:56:52;;;;;;;;;5.50;3.00;;;;;13.16;80.30;100650.44;5081705;27;47049;-59
2022/12/25 08:59:18;;;;;;;;;10.75;8.00;;;;;13.16;80.23;100666.50;5101037;27;45338;-59
2022/12/25 09:01:43;;;;;;;;;8.00;8.00;;;;;13.11;79.78;100689.06;5101609;27;45306;-59
2022/12/25 09:04:08;;;;;;;;;9.75;8.75;;;;;13.14;80.23;100688.94;5101096;27;45342;-59
2022/12/25 09:06:33;;;;;;;;;12.50;9.25;;;;;13.13;80.20;100679.16;5081919;27;46718;-59
2022/12/25 09:08:59;;;;;;;;;7.50;7.50;;;;;13.19;79.95;100689.59;5079232;27;45798;-59
2022/12/25 09:11:24;;;;;;;;;8.50;8.50;;;;;13.20;79.80;100687.78;5082911;27;45488;-59
2022/12/25 09:13:49;;;;;;;;;6.25;6.00;;;;;13.21;79.88;100694.91;5101196;27;45346;-59
2022/12/25 09:16:19;;;;;;;;;8.00;7.00;;;;;13.21;79.71;100701.13;5100887;27;45464;-59
2022/12/25 09:18:44;;;;;;;;;9.00;8.50;;;;;13.12;79.92;100697.03;5082488;27;46186;-59
2022/12/25 09:21:12;;;;;;;;;6.75;6.75;;;;;13.17;79.80;100696.84;5100831;27;45531;-59
2022/12/25 09:23:37;;;;;;;;;7.50;6.50;;;;;13.09;79.71;100697.19;5100784;27;45436;-59
2022/12/25 09:26:05;;;;;;;;;8.25;8.25;;;;;13.10;79.75;100692.72;5100748;27;45313;-60
2022/12/25 09:28:31;;;;;;;;;9.50;9.50;;;;;13.14;79.70;100708.56;5082397;27;45675;-59
2022/12/25 09:30:56;;;;;;;;;7.75;7.00;;;;;13.05;79.69;100708.97;5100921;27;45364;-59
2022/12/25 09:33:22;;;;;;;;;9.50;7.00;;;;;13.01;79.51;100698.44;5114946;27;45508;-59
2022/12/25 09:35:55;;;;;;;;;9.00;7.00;;;;;13.06;79.66;100715.19;5121123;27;45610;-59
2022/12/25 09:38:21;;;;;;;;;7.75;6.00;;;;;13.05;79.68;100695.59;5102515;27;45796;-59
2022/12/25 09:40:47;;;;;;;;;8.75;8.25;;;;;13.10;79.32;100704.28;5121497;27;45528;-59
2022/12/25 09:43:19;;;;;;;;;9.00;7.00;;;;;13.03;79.91;100688.53;5102647;27;45647;-59
2022/12/25 09:45:44;;;;;;;;;7.25;6.25;;;;;13.05;79.87;100686.69;5121026;27;47070;-59
2022/12/25 09:48:13;;;;;;;;;6.00;6.00;;;;;13.07;79.69;100690.16;5102548;27;45438;-59
2022/12/25 09:50:45;;;;;;;;;6.00;5.00;;;;;13.08;79.71;100697.25;5121068;27;45425;-59
2022/12/25 09:53:37;;;;;;;;;8.00;7.00;;;;;13.08;79.45;100698.13;5120854;27;45496;-59
2022/12/25 09:56:25;;;;;;;;;10.00;8.25;;;;;13.08;79.60;100713.31;5099655;27;47119;-59
2022/12/25 09:58:52;;;;;;;;;8.75;5.00;;;;;13.08;79.49;100716.00;5068549;27;45476;-59
2022/12/25 10:01:32;;;;;;;;;7.00;7.00;;;;;13.08;79.63;100702.59;5119825;27;45441;-59
2022/12/25 10:04:46;;;;;;;;;7.25;7.25;;;;;13.12;79.54;100707.75;5102440;27;45467;-59
2022/12/25 10:07:36;;;;;;;;;7.75;5.75;;;;;13.03;79.42;100680.50;5016801;28;45467;-59
2022/12/25 10:10:23;;;;;;;;;6.00;5.25;;;;;13.15;79.25;100690.69;5120925;27;45513;-59
2022/12/25 10:12:59;;;;;;;;;7.00;7.00;;;;;13.13;79.29;100697.91;5102128;27;45557;-59
2022/12/25 10:15:33;;;;;;;;;6.50;5.25;;;;;13.13;79.15;100700.59;5101454;27;45650;-59
2022/12/25 10:18:26;;;;;;;;;5.00;4.00;;;;;13.15;79.19;100698.72;5120589;27;46108;-59
2022/12/25 10:20:54;;;;;;;;;8.00;6.00;;;;;13.11;79.29;100686.38;5120007;27;45464;-59
2022/12/25 10:23:38;;;;;;;;;5.00;5.00;;;;;13.11;79.01;100676.56;5120774;27;45460;-59
2022/12/25 10:26:14;;;;;;;;;7.00;7.00;;;;;13.18;79.01;100687.88;5120519;27;45448;-59
2022/12/25 10:28:45;;;;;;;;;8.25;7.00;;;;;13.16;78.68;100681.69;5120358;27;45977;-59
2022/12/25 10:31:20;;;;;;;;;6.00;6.00;;;;;13.14;78.90;100676.41;5097796;27;45657;-59
2022/12/25 10:33:48;;;;;;;;;6.75;6.75;;;;;13.19;79.11;100672.66;5099570;27;45513;-59
2022/12/25 10:36:16;;;;;;;;;5.25;5.00;;;;;13.21;78.86;100670.78;5099666;27;45378;-59
2022/12/25 10:38:42;;;;;;;;;7.25;6.00;;;;;13.21;78.85;100671.63;5081133;27;48648;-59
2022/12/25 10:41:44;;;;;;;;;6.25;6.00;;;;;13.25;78.92;100693.84;5099806;27;45423;-59
2022/12/25 10:44:19;;;;;;;;;7.75;7.50;;;;;13.19;78.54;100676.22;5099824;27;45628;-59
2022/12/25 10:46:48;;;;;;;;;10.25;8.00;;;;;13.18;78.69;100677.16;5081123;27;45437;-59
2022/12/25 10:49:16;;;;;;;;;6.50;6.50;;;;;13.27;78.67;100668.69;5077830;28;46174;-59
2022/12/25 10:51:41;;;;;;;;;7.00;7.00;;;;;13.20;78.56;100653.84;5078880;27;45743;-60
2022/12/25 10:54:20;;;;;;;;;9.75;8.00;;;;;13.28;78.68;100640.97;5099425;27;45386;-59
2022/12/25 10:56:53;;;;;;;;;9.25;7.25;;;;;13.28;78.44;100656.16;5099626;27;45325;-59
2022/12/25 10:59:18;;;;;;;;;9.00;7.75;;;;;13.15;78.38;100637.09;5099148;27;45394;-60
2022/12/25 11:01:44;;;;;;;;;9.00;8.25;;;;;13.31;78.30;100677.47;5081133;27;46032;-59
2022/12/25 11:04:19;;;;;;;;;7.75;5.75;;;;;13.29;78.29;100669.50;5099400;27;45357;-60
2022/12/25 11:06:55;;;;;;;;;10.25;8.75;;;;;13.36;78.50;100671.94;5099560;27;45307;-59
2022/12/25 11:09:21;;;;;;;;;6.75;6.75;;;;;13.30;78.54;100654.28;5099158;27;45684;-59
2022/12/25 11:11:47;;;;;;;;;5.75;5.75;;;;;13.36;78.39;100667.44;5081080;27;45465;-60
2022/12/25 11:14:19;;;;;;;;;6.00;6.00;;;;;13.37;78.29;100654.94;5102336;27;45353;-59
2022/12/25 11:16:45;;;;;;;;;8.25;8.25;;;;;13.38;78.40;100654.84;5084545;27;45866;-59
2022/12/25 11:19:31;;;;;;;;;6.00;5.00;;;;;13.26;78.07;100636.59;5098137;27;47353;-59
2022/12/25 11:21:59;;;;;;;;;8.00;8.00;;;;;13.43;78.10;100665.34;5096671;27;45302;-59
2022/12/25 11:24:31;;;;;;;;;8.00;8.00;;;;;13.45;78.22;100655.44;5102902;27;46007;-60
2022/12/25 11:26:59;;;;;;;;;7.00;7.00;;;;;13.46;78.00;100667.91;5102617;27;45314;-60
2022/12/25 11:29:49;;;;;;;;;6.50;5.00;;;;;13.46;77.49;100676.78;5084385;27;47247;-59
2022/12/25 11:32:20;;;;;;;;;8.50;8.00;;;;;13.46;77.99;100692.03;5107636;27;45452;-59
2022/12/25 11:34:47;;;;;;;;;7.25;6.50;;;;;13.49;77.78;100695.44;5104721;27;45452;-59
2022/12/25 11:37:47;;;;;;;;;7.50;6.00;;;;;13.53;77.85;100690.81;5123276;27;45553;-59
2022/12/25 11:40:16;;;;;;;;;6.00;6.00;;;;;13.58;77.98;100690.59;5098754;27;46909;-60
2022/12/25 11:42:50;;;;;;;;;7.50;7.00;;;;;13.59;77.62;100701.25;5122870;27;45657;-59
2022/12/25 11:45:29;;;;;;;;;8.00;7.50;;;;;13.62;77.84;100717.22;5123071;27;45373;-59
2022/12/25 11:48:12;;;;;;;;;10.00;8.50;;;;;13.65;77.88;100711.72;5122971;27;45441;-59
2022/12/25 11:50:59;;;;;;;;;9.50;7.00;;;;;13.67;77.87;100704.47;5122826;27;45365;-59
2022/12/25 11:53:36;;;;;;;;;7.50;6.75;;;;;13.64;77.61;100693.00;5122839;27;45816;-59
2022/12/25 11:56:06;;;;;;;;;7.50;7.25;;;;;13.65;77.38;100674.16;5103689;27;45361;-59
2022/12/25 11:58:40;;;;;;;;;8.75;7.75;;;;;13.68;77.17;100665.09;5097082;27;45390;-59
2022/12/25 12:01:28;;;;;;;;;8.00;8.00;;;;;13.73;77.52;100659.50;5104073;27;46878;-59
2022/12/25 12:03:53;;;;;;;;;9.00;8.00;;;;;13.64;77.39;100656.31;5122593;27;45739;-59
2022/12/25 12:06:27;;;;;;;;;11.50;8.75;;;;;13.72;77.43;100674.75;5122468;27;45376;-59
2022/12/25 12:09:15;;;;;;;;;8.00;6.75;;;;;13.64;77.49;100660.81;5122673;27;45440;-59
2022/12/25 12:11:48;;;;;;;;;5.50;5.00;;;;;13.61;77.62;100637.69;5080039;27;46214;-59
2022/12/25 12:14:19;;;;;;;;;9.00;9.00;;;;;13.75;77.42;100647.78;5104029;27;45402;-59
2022/12/25 12:16:45;;;;;;;;;7.00;6.75;;;;;13.67;77.08;100633.88;5104100;27;45454;-59
2022/12/25 12:19:27;;;;;;;;;9.25;7.75;;;;;13.76;77.33;100640.59;5103952;27;45454;-59
2022/12/25 12:21:56;;;;;;;;;7.00;7.00;;;;;13.79;77.17;100645.81;5103845;27;48231;-59
2022/12/25 12:24:24;;;;;;;;;8.00;7.00;;;;;13.76;77.08;100622.69;5121199;27;45641;-59
2022/12/25 12:27:17;;;;;;;;;6.25;6.25;;;;;13.82;76.87;100626.91;5122404;27;45394;-59
2022/12/25 12:29:44;;;;;;;;;10.50;8.00;;;;;13.78;76.85;100628.88;5103745;27;45531;-59
2022/12/25 12:32:43;;;;;;;;;8.00;8.00;;;;;13.82;76.97;100608.97;5110045;27;46205;-59
2022/12/25 12:35:25;;;;;;;;;7.00;7.00;;;;;13.88;76.77;100613.16;5081854;27;46387;-59
2022/12/25 12:38:10;;;;;;;;;10.25;8.75;;;;;13.89;76.75;100615.78;5101524;27;45333;-59
2022/12/25 12:40:39;;;;;;;;;9.00;7.25;;;;;13.92;77.05;100624.66;5100589;27;45567;-59
2022/12/25 12:43:21;;;;;;;;;7.50;5.75;;;;;13.94;76.58;100638.84;5101552;27;45455;-59
2022/12/25 12:45:55;;;;;;;;;7.25;7.25;;;;;13.87;76.22;100627.56;5083167;27;45491;-59
2022/12/25 12:48:27;;;;;;;;;7.25;6.25;;;;;13.94;76.61;100642.41;5101457;27;45320;-60
2022/12/25 12:51:05;;;;;;;;;6.25;3.50;;;;;13.93;76.56;100621.88;5101262;27;45440;-59
2022/12/25 12:53:32;;;;;;;;;6.25;5.50;;;;;13.99;76.49;100624.25;5082643;27;48179;-60
2022/12/25 12:56:18;;;;;;;;;4.25;4.25;;;;;13.95;76.39;100621.78;5101279;27;45539;-60
2022/12/25 12:58:49;;;;;;;;;8.50;8.50;;;;;13.92;76.09;100597.81;5090127;27;45472;-59
2022/12/25 13:01:25;;;;;;;;;7.00;7.00;;;;;13.95;76.26;100605.69;5099865;27;45407;-60
2022/12/25 13:03:58;;;;;;;;;7.50;7.50;;;;;14.04;76.03;100627.59;5082648;27;48605;-59
2022/12/25 13:06:45;;;;;;;;;8.00;6.75;;;;;14.06;75.87;100623.00;5079181;28;46097;-59
2022/12/25 13:09:25;;;;;;;;;4.00;4.00;;;;;14.10;75.96;100607.66;5096269;27;45353;-60